createdAt,value
2019-05-20T00:00:18.307Z,16.67
2019-05-20T00:02:47.751Z,16.80
2019-05-20T00:05:17.158Z,16.50
2019-05-20T00:07:47.087Z,17.17
2019-05-20T00:10:16.548Z,16.17
2019-05-20T00:12:45.826Z,15.90
2019-05-20T00:15:15.380Z,15.73
2019-05-20T00:17:44.733Z,16.40
2019-05-20T00:20:14.250Z,16.50
2019-05-20T00:22:43.528Z,15.93
2019-05-20T00:25:12.767Z,15.47
2019-05-20T00:27:42.062Z,15.33
2019-05-20T00:30:11.579Z,14.87
2019-05-20T00:32:42.341Z,14.10
2019-05-20T00:35:14.910Z,14.60
2019-05-20T00:37:44.183Z,12.93
2019-05-20T00:40:13.566Z,15.27
2019-05-20T00:42:42.812Z,13.30
2019-05-20T00:45:12.816Z,13.47
2019-05-20T00:47:42.178Z,12.70
2019-05-20T00:50:11.570Z,13.83
2019-05-20T00:52:40.932Z,12.93
2019-05-20T00:55:21.793Z,13.60
2019-05-20T00:57:51.046Z,13.30
2019-05-20T01:00:20.410Z,14.23
2019-05-20T01:02:57.070Z,13.93
2019-05-20T01:05:21.680Z,13.90
2019-05-20T01:07:51.019Z,12.50
2019-05-20T01:10:20.355Z,12.90
2019-05-20T01:12:49.642Z,13.17
2019-05-20T01:15:19.933Z,12.30
2019-05-20T01:17:49.264Z,13.13
2019-05-20T01:20:18.942Z,12.67
2019-05-20T01:22:48.226Z,13.10
2019-05-20T01:25:17.730Z,13.30
2019-05-20T01:27:47.143Z,12.43
2019-05-20T01:30:17.996Z,12.60
2019-05-20T01:32:47.274Z,12.97
2019-05-20T01:35:16.738Z,12.17
2019-05-20T01:37:46.091Z,13.47
2019-05-20T01:40:15.448Z,12.87
2019-05-20T01:42:45.307Z,13.20
2019-05-20T01:45:15.154Z,13.73
2019-05-20T01:47:44.479Z,13.63
2019-05-20T01:50:13.759Z,12.80
2019-05-20T01:52:43.106Z,13.27
2019-05-20T01:55:13.165Z,13.87
2019-05-20T01:57:42.581Z,13.07
2019-05-20T02:00:12.130Z,12.63
2019-05-20T02:02:41.397Z,12.10
2019-05-20T02:05:11.179Z,11.63
2019-05-20T02:07:40.417Z,11.50
2019-05-20T02:10:10.318Z,11.07
2019-05-20T02:12:39.648Z,10.53
2019-05-20T02:15:22.517Z,11.47
2019-05-20T02:17:51.855Z,11.70
2019-05-20T02:20:21.194Z,11.73
2019-05-20T02:22:50.510Z,12.80
2019-05-20T02:25:19.970Z,11.80
2019-05-20T02:27:49.237Z,11.37
2019-05-20T02:30:18.840Z,12.37
2019-05-20T02:32:48.154Z,11.57
2019-05-20T02:35:17.611Z,12.80
2019-05-20T02:37:46.870Z,11.93
2019-05-20T02:40:16.428Z,10.43
2019-05-20T02:42:45.763Z,14.17
2019-05-20T02:45:15.095Z,9.50
2019-05-20T02:47:44.465Z,8.73
2019-05-20T02:50:13.951Z,8.10
2019-05-20T02:52:43.784Z,7.67
2019-05-20T02:55:13.128Z,8.10
2019-05-20T02:57:42.396Z,7.87
2019-05-20T03:00:12.204Z,8.70
2019-05-20T03:02:41.666Z,8.80
2019-05-20T03:05:11.123Z,11.50
2019-05-20T03:07:40.379Z,12.50
2019-05-20T03:10:09.905Z,12.47
2019-05-20T03:12:40.294Z,13.63
2019-05-20T03:15:10.092Z,14.70
2019-05-20T03:17:39.427Z,15.47
2019-05-20T03:20:09.189Z,14.67
2019-05-20T03:22:38.556Z,14.30
2019-05-20T03:25:08.489Z,13.17
2019-05-20T03:27:37.957Z,12.20
2019-05-20T03:30:08.458Z,12.60
2019-05-20T03:32:37.774Z,11.27
2019-05-20T03:35:08.154Z,12.30
2019-05-20T03:37:37.535Z,11.87
2019-05-20T03:40:08.283Z,11.70
2019-05-20T03:42:38.418Z,11.30
2019-05-20T03:45:08.239Z,11.90
2019-05-20T03:47:37.489Z,13.17
2019-05-20T03:50:07.367Z,13.00
2019-05-20T03:52:36.703Z,13.53
2019-05-20T03:55:06.619Z,14.47
2019-05-20T03:57:35.882Z,13.70
2019-05-20T04:00:05.523Z,14.03
2019-05-20T04:02:34.790Z,13.77
2019-05-20T04:05:04.521Z,12.20
2019-05-20T04:07:33.889Z,11.97
2019-05-20T04:10:03.171Z,11.73
2019-05-20T04:12:32.475Z,12.50
2019-05-20T04:15:01.815Z,12.00
2019-05-20T04:17:31.186Z,13.37
2019-05-20T04:20:00.725Z,12.67
2019-05-20T04:22:30.086Z,13.77
2019-05-20T04:24:59.674Z,13.23
2019-05-20T04:27:28.998Z,14.90
2019-05-20T04:29:58.418Z,15.53
2019-05-20T04:32:27.670Z,15.33
2019-05-20T04:34:57.471Z,14.30
2019-05-20T04:37:26.818Z,13.20
2019-05-20T04:39:57.797Z,14.10
2019-05-20T04:42:27.163Z,14.53
2019-05-20T04:44:57.491Z,13.37
2019-05-20T04:47:29.812Z,11.87
2019-05-20T04:49:59.201Z,13.20
2019-05-20T04:52:28.530Z,14.60
2019-05-20T04:54:57.983Z,12.17
2019-05-20T04:57:27.607Z,13.83
2019-05-20T04:59:58.791Z,14.67
2019-05-20T05:02:28.550Z,12.80
2019-05-20T05:04:58.139Z,13.47
2019-05-20T05:07:27.460Z,12.30
2019-05-20T05:09:56.849Z,12.97
2019-05-20T05:12:26.263Z,11.67
2019-05-20T05:14:56.147Z,12.37
2019-05-20T05:17:25.389Z,11.43
2019-05-20T05:19:55.125Z,11.63
2019-05-20T05:22:25.973Z,10.87
2019-05-20T05:24:55.550Z,13.10
2019-05-20T05:27:26.215Z,12.50
2019-05-20T05:29:57.387Z,13.67
2019-05-20T05:32:42.577Z,12.93
2019-05-20T05:35:13.893Z,13.43
2019-05-20T05:37:43.266Z,13.40
2019-05-20T05:40:14.587Z,13.17
2019-05-20T05:42:43.868Z,13.63
2019-05-20T05:45:13.863Z,11.00
2019-05-20T05:47:43.218Z,10.00
2019-05-20T05:50:12.855Z,10.80
2019-05-20T05:52:42.172Z,11.87
2019-05-20T05:55:11.823Z,10.23
2019-05-20T05:57:41.157Z,10.10
2019-05-20T06:00:11.026Z,10.40
2019-05-20T06:02:40.263Z,11.40
2019-05-20T06:05:09.630Z,11.23
2019-05-20T06:07:38.921Z,10.60
2019-05-20T06:10:08.727Z,8.93
2019-05-20T06:12:38.206Z,9.47
2019-05-20T06:15:08.100Z,10.57
2019-05-20T06:17:38.250Z,9.70
2019-05-20T06:20:09.648Z,9.43
2019-05-20T06:22:39.122Z,9.47
2019-05-20T06:25:09.008Z,9.23
2019-05-20T06:27:38.521Z,8.73
2019-05-20T06:30:09.109Z,9.20
2019-05-20T06:32:39.770Z,9.60
2019-05-20T06:35:09.918Z,9.50
2019-05-20T06:37:42.495Z,10.53
2019-05-20T06:40:12.339Z,9.53
2019-05-20T06:42:41.641Z,9.80
2019-05-20T06:45:11.074Z,9.27
2019-05-20T06:47:40.322Z,8.27
2019-05-20T06:50:09.889Z,7.70
2019-05-20T06:52:41.313Z,8.07
2019-05-20T06:55:14.233Z,7.10
2019-05-20T06:57:43.500Z,6.00
2019-05-20T07:00:19.488Z,6.97
2019-05-20T07:02:52.030Z,6.80
2019-05-20T07:05:19.922Z,8.00
2019-05-20T07:07:49.338Z,6.73
2019-05-20T07:10:18.615Z,7.30
2019-05-20T07:12:48.029Z,6.70
2019-05-20T07:15:17.432Z,7.17
2019-05-20T07:17:46.837Z,7.50
2019-05-20T07:20:16.144Z,6.23
2019-05-20T07:22:55.644Z,7.20
2019-05-20T07:25:17.377Z,7.17
2019-05-20T07:27:46.654Z,6.90
2019-05-20T07:30:16.082Z,7.23
2019-05-20T07:32:45.344Z,7.83
2019-05-20T07:35:28.646Z,6.17
2019-05-20T07:37:45.757Z,6.80
2019-05-20T07:40:17.769Z,7.03
2019-05-20T07:42:47.092Z,7.10
2019-05-20T07:45:16.500Z,7.40
2019-05-20T07:47:45.788Z,7.30
2019-05-20T07:50:15.583Z,7.47
2019-05-20T07:52:44.826Z,7.40
2019-05-20T07:55:14.264Z,7.30
2019-05-20T07:57:46.402Z,7.20
2019-05-20T08:00:17.271Z,6.17
2019-05-20T08:02:46.791Z,6.90
2019-05-20T08:05:16.298Z,6.67
2019-05-20T08:07:51.927Z,6.87
2019-05-20T08:10:16.753Z,7.80
2019-05-20T08:12:46.124Z,6.97
2019-05-20T08:15:16.909Z,6.83
2019-05-20T08:17:46.181Z,7.40
2019-05-20T08:20:15.986Z,7.07
2019-05-20T08:22:45.234Z,6.93
2019-05-20T08:25:14.749Z,6.17
2019-05-20T08:27:43.979Z,5.50
2019-05-20T08:30:14.872Z,5.67
2019-05-20T08:32:44.160Z,6.10
2019-05-20T08:35:15.151Z,6.40
2019-05-20T08:37:46.007Z,5.93
2019-05-20T08:40:16.953Z,5.87
2019-05-20T08:42:46.274Z,5.90
2019-05-20T08:45:15.723Z,6.13
2019-05-20T08:47:45.030Z,6.87
2019-05-20T08:50:16.423Z,6.83
2019-05-20T08:52:46.239Z,6.17
2019-05-20T08:55:15.823Z,5.50
2019-05-20T08:57:45.118Z,5.43
2019-05-20T09:00:23.786Z,5.28
2019-05-20T09:02:52.994Z,4.90
2019-05-20T09:05:22.293Z,5.58
2019-05-20T09:08:02.481Z,5.28
2019-05-20T09:10:23.570Z,5.75
2019-05-20T09:12:52.840Z,5.75
2019-05-20T09:15:22.265Z,5.67
2019-05-20T09:17:52.702Z,5.62
2019-05-20T09:20:22.161Z,6.00
2019-05-20T09:22:52.533Z,5.65
2019-05-20T09:25:31.691Z,5.50
2019-05-20T09:28:01.400Z,5.60
2019-05-20T09:30:30.721Z,5.25
2019-05-20T09:33:00.054Z,5.33
2019-05-20T09:35:29.614Z,5.28
2019-05-20T09:37:59.130Z,4.90
2019-05-20T09:40:43.011Z,4.50
2019-05-20T09:43:12.439Z,4.37
2019-05-20T09:45:41.714Z,4.67
2019-05-20T09:48:11.804Z,4.53
2019-05-20T09:50:41.206Z,4.67
2019-05-20T09:53:10.571Z,4.78
2019-05-20T09:55:39.958Z,4.65
2019-05-20T09:58:09.341Z,4.78
2019-05-20T10:00:38.760Z,4.37
2019-05-20T10:03:08.081Z,4.33
2019-05-20T10:05:38.116Z,4.40
2019-05-20T10:08:07.827Z,4.83
2019-05-20T10:10:37.535Z,4.75
2019-05-20T10:13:07.342Z,5.03
2019-05-20T10:15:37.428Z,4.40
2019-05-20T10:18:06.754Z,4.67
2019-05-20T10:20:36.718Z,3.77
2019-05-20T10:23:06.048Z,4.75
2019-05-20T10:25:35.414Z,4.22
2019-05-20T10:28:04.791Z,4.30
2019-05-20T10:30:34.213Z,4.12
2019-05-20T10:33:03.553Z,7.75
2019-05-20T10:35:33.009Z,4.45
2019-05-20T10:38:02.351Z,4.33
2019-05-20T10:40:31.815Z,3.72
2019-05-20T10:43:01.257Z,3.95
2019-05-20T10:45:32.271Z,4.35
2019-05-20T10:48:01.994Z,3.60
2019-05-20T10:50:31.395Z,3.55
2019-05-20T10:53:00.652Z,3.60
2019-05-20T10:55:30.061Z,3.33
2019-05-20T10:57:59.362Z,3.55
2019-05-20T11:00:28.683Z,3.62
2019-05-20T11:02:58.013Z,3.92
2019-05-20T11:05:27.293Z,4.22
2019-05-20T11:07:56.856Z,3.92
2019-05-20T11:10:26.341Z,3.42
2019-05-20T11:12:55.685Z,3.40
2019-05-20T11:15:24.964Z,3.10
2019-05-20T11:17:54.255Z,3.40
2019-05-20T11:20:23.664Z,3.12
2019-05-20T11:22:52.906Z,3.30
2019-05-20T11:25:22.346Z,2.90
2019-05-20T11:27:51.607Z,3.33
2019-05-20T11:30:21.402Z,3.33
2019-05-20T11:32:50.669Z,3.00
2019-05-20T11:35:21.125Z,3.08
2019-05-20T11:37:50.415Z,3.17
2019-05-20T11:40:20.455Z,3.40
2019-05-20T11:42:49.814Z,3.00
2019-05-20T11:45:19.157Z,2.87
2019-05-20T11:47:48.447Z,2.83
2019-05-20T11:50:19.407Z,3.47
2019-05-20T11:52:48.879Z,2.98
2019-05-20T11:55:18.301Z,2.95
2019-05-20T11:57:47.660Z,3.20
2019-05-20T12:00:17.306Z,2.95
2019-05-20T12:02:46.638Z,2.80
2019-05-20T12:05:16.066Z,2.87
2019-05-20T12:07:45.763Z,2.80
2019-05-20T12:10:15.384Z,3.05
2019-05-20T12:12:46.202Z,3.02
2019-05-20T12:15:17.334Z,2.90
2019-05-20T12:17:46.639Z,3.02
2019-05-20T12:20:16.073Z,2.52
2019-05-20T12:22:45.364Z,2.42
2019-05-20T12:25:14.843Z,2.65
2019-05-20T12:27:44.537Z,2.52
2019-05-20T12:30:14.165Z,2.70
2019-05-20T12:32:43.544Z,2.83
2019-05-20T12:35:13.217Z,2.72
2019-05-20T12:37:45.621Z,2.60
2019-05-20T12:40:15.247Z,2.15
2019-05-20T12:42:44.575Z,2.30
2019-05-20T12:45:16.533Z,2.37
2019-05-20T12:47:46.335Z,2.30
2019-05-20T12:50:16.890Z,2.40
2019-05-20T12:52:46.164Z,2.47
2019-05-20T12:55:15.813Z,2.35
2019-05-20T12:57:45.237Z,2.02
2019-05-20T13:00:16.896Z,1.95
2019-05-20T13:02:46.280Z,2.20
2019-05-20T13:05:16.210Z,1.82
2019-05-20T13:07:45.599Z,1.95
2019-05-20T13:10:32.272Z,2.02
2019-05-20T13:12:47.153Z,2.00
2019-05-20T13:15:16.896Z,1.85
2019-05-20T13:17:46.248Z,2.05
2019-05-20T13:20:15.895Z,2.20
2019-05-20T13:22:45.368Z,1.95
2019-05-20T13:25:14.711Z,2.02
2019-05-20T13:27:43.987Z,1.85
2019-05-20T13:58:01.414Z,2.02
2019-05-20T14:00:30.752Z,1.80
2019-05-20T14:03:00.186Z,2.10
2019-05-20T14:05:29.631Z,1.60
2019-05-20T14:07:59.219Z,2.30
2019-05-20T14:10:28.698Z,2.00
2019-05-20T14:12:58.019Z,1.82
2019-05-20T14:15:27.533Z,1.80
2019-05-20T14:17:56.870Z,2.35
2019-05-20T14:20:26.468Z,2.10
2019-05-20T14:22:55.904Z,1.62
2019-05-20T14:25:28.705Z,1.72
2019-05-20T14:27:56.314Z,1.47
2019-05-20T14:30:25.643Z,1.60
2019-05-20T14:32:55.201Z,1.72
2019-05-20T14:35:24.709Z,1.90
2019-05-20T14:37:54.053Z,1.45
2019-05-20T14:40:23.503Z,1.50
2019-05-20T14:42:52.786Z,1.60
2019-05-20T14:45:22.179Z,1.40
2019-05-20T14:47:51.533Z,1.40
2019-05-20T14:50:21.877Z,1.90
2019-05-20T14:52:51.707Z,1.67
2019-05-20T14:55:21.251Z,1.37
2019-05-20T14:57:50.573Z,1.40
2019-05-20T15:00:20.729Z,1.20
2019-05-20T15:02:50.058Z,1.50
2019-05-20T15:05:20.456Z,1.57
2019-05-20T15:07:49.792Z,1.60
2019-05-20T15:10:20.851Z,1.50
2019-05-20T15:12:50.238Z,1.52
2019-05-20T15:15:19.722Z,1.45
2019-05-20T15:17:48.957Z,2.35
2019-05-20T15:20:18.516Z,1.98
2019-05-20T15:22:47.830Z,1.80
2019-05-20T15:25:17.477Z,1.62
2019-05-20T15:27:49.744Z,1.77
2019-05-20T15:30:17.984Z,1.52
2019-05-20T15:32:47.262Z,1.77
2019-05-20T15:35:16.769Z,1.80
2019-05-20T15:37:46.058Z,1.60
2019-05-20T15:40:16.505Z,2.30
2019-05-20T15:42:45.774Z,1.60
2019-05-20T15:45:15.362Z,1.70
2019-05-20T15:47:44.722Z,2.00
2019-05-20T15:50:14.656Z,2.10
2019-05-20T15:52:45.596Z,1.92
2019-05-20T15:55:15.114Z,2.00
2019-05-20T15:57:44.428Z,1.85
2019-05-20T16:00:15.899Z,1.90
2019-05-20T16:02:45.143Z,1.87
2019-05-20T16:05:14.627Z,1.62
2019-05-20T16:07:44.602Z,2.10
2019-05-20T16:10:14.146Z,2.10
2019-05-20T16:12:44.603Z,1.70
2019-05-20T16:15:14.902Z,1.80
2019-05-20T16:17:47.959Z,1.67
2019-05-20T16:20:16.449Z,1.80
2019-05-20T16:22:45.759Z,2.10
2019-05-20T16:25:15.403Z,1.92
2019-05-20T16:27:44.675Z,2.15
2019-05-20T16:30:14.903Z,2.08
2019-05-20T16:32:44.292Z,1.82
2019-05-20T16:35:17.185Z,2.15
2019-05-20T16:37:47.031Z,1.50
2019-05-20T16:40:16.283Z,1.85
2019-05-20T16:42:47.642Z,1.80
2019-05-20T16:45:18.096Z,1.40
2019-05-20T16:47:47.486Z,1.40
2019-05-20T16:50:17.180Z,1.40
2019-05-20T16:52:47.840Z,1.55
2019-05-20T16:55:21.806Z,1.37
2019-05-20T16:57:51.459Z,1.70
2019-05-20T17:00:31.530Z,1.72
2019-05-20T17:02:54.443Z,1.77
2019-05-20T17:05:26.451Z,1.40
2019-05-20T17:08:00.539Z,1.70
2019-05-20T17:10:30.640Z,1.57
2019-05-20T17:13:00.461Z,1.50
2019-05-20T17:15:31.158Z,1.57
2019-05-20T17:18:01.976Z,1.90
2019-05-20T17:20:31.996Z,1.62
2019-05-20T17:23:01.725Z,1.35
2019-05-20T17:25:31.200Z,1.57
2019-05-20T17:28:00.921Z,1.30
2019-05-20T17:30:44.082Z,1.30
2019-05-20T17:33:02.098Z,1.40
2019-05-20T17:35:33.834Z,1.20
2019-05-20T17:38:03.243Z,1.25
2019-05-20T17:40:32.778Z,1.30
2019-05-20T17:43:03.394Z,1.23
2019-05-20T17:45:34.254Z,1.40
2019-05-20T17:48:04.208Z,2.77
2019-05-20T17:50:33.855Z,1.30
2019-05-20T17:53:03.531Z,1.35
2019-05-20T17:55:34.404Z,1.72
2019-05-20T17:58:04.434Z,1.52
2019-05-20T18:00:34.303Z,1.90
2019-05-20T18:03:04.127Z,2.20
2019-05-20T18:05:34.745Z,1.40
2019-05-20T18:08:06.666Z,1.40
2019-05-20T18:13:00.470Z,1.50
2019-05-20T18:15:29.811Z,1.65
2019-05-20T18:17:59.292Z,1.50
2019-05-20T18:20:31.070Z,1.82
2019-05-20T18:23:00.670Z,1.90
2019-05-20T18:25:30.285Z,1.83
2019-05-20T18:27:59.845Z,2.00
2019-05-20T18:30:29.443Z,1.77
2019-05-20T18:32:58.895Z,1.50
2019-05-20T18:35:28.595Z,1.70
2019-05-20T18:37:58.126Z,2.20
2019-05-20T18:40:27.683Z,2.40
2019-05-20T18:42:57.143Z,1.80
2019-05-20T18:45:26.715Z,2.07
2019-05-20T18:47:56.339Z,2.10
2019-05-20T18:50:28.477Z,2.60
2019-05-20T18:53:01.405Z,2.07
2019-05-20T18:55:34.313Z,2.17
2019-05-20T18:58:02.153Z,2.30
2019-05-20T19:00:31.487Z,2.02
2019-05-20T19:03:00.928Z,2.20
2019-05-20T19:05:30.188Z,2.40
2019-05-20T19:08:00.172Z,2.47
2019-05-20T19:10:29.613Z,2.50
2019-05-20T19:12:59.217Z,2.58
2019-05-20T19:15:28.551Z,2.40
2019-05-20T19:17:57.988Z,2.77
2019-05-20T19:20:27.315Z,2.77
2019-05-20T19:22:56.702Z,2.80
2019-05-20T19:25:37.327Z,2.43
2019-05-20T19:27:57.138Z,2.50
2019-05-20T19:30:26.524Z,2.57
2019-05-20T19:32:56.122Z,2.60
2019-05-20T19:35:25.534Z,2.67
2019-05-20T19:37:54.782Z,2.80
2019-05-20T19:40:24.882Z,3.10
2019-05-20T19:42:54.308Z,3.23
2019-05-20T19:45:23.793Z,3.90
2019-05-20T19:47:53.323Z,3.00
2019-05-20T19:50:22.589Z,3.00
2019-05-20T19:52:53.139Z,2.80
2019-05-20T19:55:22.473Z,2.70
2019-05-20T19:57:51.960Z,3.50
2019-05-20T20:00:21.391Z,3.73
2019-05-20T20:02:50.787Z,3.43
2019-05-20T20:05:20.047Z,3.50
2019-05-20T20:07:49.514Z,3.67
2019-05-20T20:10:18.800Z,4.10
2019-05-20T20:12:48.140Z,3.90
2019-05-20T20:15:18.567Z,3.30
2019-05-20T20:17:47.956Z,3.53
2019-05-20T20:20:17.429Z,3.37
2019-05-20T20:22:46.760Z,3.20
2019-05-20T20:25:16.279Z,3.50
2019-05-20T20:27:46.149Z,4.20
2019-05-20T20:30:15.724Z,5.40
2019-05-20T20:32:45.130Z,4.20
2019-05-20T20:35:14.707Z,5.07
2019-05-20T20:37:44.042Z,4.60
2019-05-20T20:40:14.111Z,4.43
2019-05-20T20:42:43.462Z,4.63
2019-05-20T20:45:12.920Z,3.93
2019-05-20T20:47:42.493Z,4.10
2019-05-20T20:50:12.691Z,4.17
2019-05-20T20:52:42.033Z,4.23
2019-05-20T20:55:11.956Z,14.13
2019-05-20T20:57:41.201Z,7.40
2019-05-20T21:00:11.729Z,4.33
2019-05-20T21:02:52.608Z,4.50
2019-05-20T21:05:12.970Z,5.23
2019-05-20T21:07:42.264Z,5.13
2019-05-20T21:10:11.855Z,5.30
2019-05-20T21:12:41.264Z,5.47
2019-05-20T21:15:11.129Z,5.30
2019-05-20T21:17:40.578Z,5.57
2019-05-20T21:20:09.827Z,5.60
2019-05-20T21:22:39.197Z,5.43
2019-05-20T21:25:08.575Z,5.60
2019-05-20T21:27:38.047Z,5.80
2019-05-20T21:30:08.293Z,5.30
2019-05-20T21:32:37.926Z,6.27
2019-05-20T21:35:07.222Z,5.70
2019-05-20T21:37:36.555Z,6.20
2019-05-20T21:40:06.239Z,6.03
2019-05-20T21:42:35.844Z,6.73
2019-05-20T21:45:05.755Z,6.30
2019-05-20T21:47:35.028Z,5.80
2019-05-20T21:50:04.496Z,5.73
2019-05-20T21:52:34.343Z,5.60
2019-05-20T21:55:04.233Z,5.30
2019-05-20T21:57:33.719Z,5.50
2019-05-20T22:00:03.114Z,5.63
2019-05-20T22:02:32.556Z,6.87
2019-05-20T22:05:01.991Z,5.27
2019-05-20T22:07:31.459Z,5.33
2019-05-20T22:10:00.904Z,5.27
2019-05-20T22:12:30.210Z,5.27
2019-05-20T22:14:59.523Z,4.77
2019-05-20T22:17:29.929Z,5.07
2019-05-20T22:19:59.226Z,5.63
2019-05-20T22:22:47.695Z,4.60
2019-05-20T22:25:17.144Z,5.27
2019-05-20T22:27:46.576Z,4.97
2019-05-20T22:30:16.412Z,4.40
2019-05-20T22:32:45.686Z,4.80
2019-05-20T22:35:15.143Z,5.03
2019-05-20T22:37:45.003Z,4.83
2019-05-20T22:40:14.504Z,4.80
2019-05-20T22:42:44.038Z,4.70
2019-05-20T22:45:13.310Z,4.87
2019-05-20T22:47:42.641Z,4.60
2019-05-20T22:50:11.979Z,4.30
2019-05-20T22:52:41.395Z,4.90
2019-05-20T22:55:10.743Z,4.83
2019-05-20T22:57:40.177Z,3.97
2019-05-20T23:00:10.409Z,3.80
2019-05-20T23:02:40.054Z,4.00
2019-05-20T23:05:09.463Z,3.80
2019-05-20T23:07:38.980Z,3.83
2019-05-20T23:10:08.881Z,4.00
2019-05-20T23:12:38.297Z,4.00
2019-05-20T23:15:07.862Z,5.10
2019-05-20T23:17:37.123Z,4.20
2019-05-20T23:20:07.415Z,3.90
2019-05-20T23:22:36.703Z,4.23
2019-05-20T23:25:06.041Z,3.50
2019-05-20T23:27:35.313Z,4.50
2019-05-20T23:30:05.470Z,4.63
2019-05-20T23:32:34.798Z,5.20
2019-05-20T23:35:04.507Z,7.47
2019-05-20T23:37:33.868Z,6.50
2019-05-20T23:40:03.298Z,6.60
2019-05-20T23:42:32.562Z,5.53
2019-05-20T23:45:01.984Z,5.07
2019-05-20T23:47:31.318Z,4.50
2019-05-20T23:50:00.725Z,4.87
2019-05-20T23:52:30.125Z,5.30
2019-05-20T23:54:59.418Z,4.60
2019-05-20T23:57:28.753Z,4.90
2019-05-20T23:59:58.168Z,4.57
